createdAt,value
2022-12-07T00:00:04.674Z,31.13
2022-12-07T00:02:11.933Z,29.25
2022-12-07T00:04:07.279Z,30.90
2022-12-07T00:05:58.058Z,30.58
2022-12-07T00:07:45.204Z,28.17
2022-12-07T00:09:32.602Z,30.17
2022-12-07T00:11:21.925Z,28.17
2022-12-07T00:13:08.953Z,28.92
2022-12-07T00:14:56.293Z,29.50
2022-12-07T00:16:44.685Z,30.37
2022-12-07T00:18:32.427Z,28.70
2022-12-07T00:20:19.678Z,31.52
2022-12-07T00:22:06.717Z,27.80
2022-12-07T00:23:55.510Z,30.67
2022-12-07T00:25:42.858Z,28.73
2022-12-07T00:27:29.858Z,29.27
2022-12-07T00:29:22.873Z,28.52
2022-12-07T00:31:12.776Z,28.35
2022-12-07T00:32:59.732Z,29.08
2022-12-07T00:34:46.746Z,26.13
2022-12-07T00:36:34.174Z,27.52
2022-12-07T00:38:21.137Z,27.75
2022-12-07T00:40:08.697Z,27.67
2022-12-07T00:41:55.968Z,26.13
2022-12-07T00:43:44.479Z,25.87
2022-12-07T00:45:31.627Z,26.75
2022-12-07T00:47:18.965Z,25.40
2022-12-07T00:49:06.528Z,25.23
2022-12-07T00:50:53.928Z,24.45
2022-12-07T00:52:41.183Z,23.25
2022-12-07T00:54:28.176Z,23.63
2022-12-07T00:56:18.003Z,23.63
2022-12-07T00:58:05.341Z,25.52
2022-12-07T00:59:56.183Z,26.37
2022-12-07T01:01:43.459Z,25.13
2022-12-07T01:03:31.405Z,24.50
2022-12-07T01:05:18.655Z,23.95
2022-12-07T01:07:05.713Z,23.30
2022-12-07T01:08:54.004Z,24.77
2022-12-07T01:10:41.257Z,24.55
2022-12-07T01:12:28.390Z,24.23
2022-12-07T01:14:15.718Z,26.10
2022-12-07T01:16:05.359Z,25.73
2022-12-07T01:17:52.593Z,24.83
2022-12-07T01:19:39.951Z,26.48
2022-12-07T01:21:29.544Z,23.80
2022-12-07T01:23:16.726Z,23.85
2022-12-07T01:25:04.443Z,24.15
2022-12-07T01:26:51.534Z,25.60
2022-12-07T01:28:39.145Z,25.67
2022-12-07T01:32:13.586Z,23.85
2022-12-07T01:34:01.707Z,24.92
2022-12-07T01:35:48.993Z,25.70
2022-12-07T01:37:38.016Z,26.50
2022-12-07T01:39:25.806Z,26.65
2022-12-07T01:41:13.533Z,26.13
2022-12-07T01:43:00.716Z,25.50
2022-12-07T01:45:19.231Z,25.70
2022-12-07T01:47:07.881Z,25.88
2022-12-07T01:48:55.045Z,26.00
2022-12-07T01:50:44.514Z,24.83
2022-12-07T01:52:34.443Z,24.42
2022-12-07T01:54:22.877Z,23.20
2022-12-07T01:56:13.697Z,23.38
2022-12-07T01:58:01.178Z,22.70
2022-12-07T01:59:51.022Z,22.00
2022-12-07T02:01:38.512Z,21.58
2022-12-07T02:03:34.809Z,21.17
2022-12-07T02:05:22.989Z,21.02
2022-12-07T02:07:10.240Z,20.55
2022-12-07T02:08:57.498Z,20.10
2022-12-07T02:10:44.810Z,18.85
2022-12-07T02:12:32.025Z,19.05
2022-12-07T02:14:19.359Z,18.52
2022-12-07T02:16:20.323Z,18.37
2022-12-07T02:18:17.208Z,18.40
2022-12-07T02:20:07.848Z,16.67
2022-12-07T02:22:43.195Z,16.55
2022-12-07T02:24:55.219Z,15.95
2022-12-07T02:27:00.245Z,15.50
2022-12-07T02:29:05.411Z,17.20
2022-12-07T02:30:55.980Z,18.52
2022-12-07T02:33:03.788Z,18.75
2022-12-07T02:34:58.372Z,16.20
2022-12-07T02:36:51.130Z,15.43
2022-12-07T02:38:47.137Z,15.52
2022-12-07T02:40:43.373Z,15.55
2022-12-07T02:42:42.918Z,14.85
2022-12-07T02:44:33.213Z,16.15
2022-12-07T02:46:28.087Z,15.15
2022-12-07T02:48:18.390Z,16.15
2022-12-07T02:50:07.420Z,15.10
2022-12-07T02:51:54.643Z,14.82
2022-12-07T02:53:44.021Z,15.95
2022-12-07T02:55:42.301Z,14.48
2022-12-07T02:57:52.707Z,13.63
2022-12-07T03:00:05.236Z,13.48
2022-12-07T03:02:19.060Z,12.85
2022-12-07T03:04:38.569Z,14.00
2022-12-07T03:06:35.338Z,13.68
2022-12-07T03:08:28.684Z,14.60
2022-12-07T03:10:27.929Z,14.38
2022-12-07T03:12:20.324Z,12.48
2022-12-07T03:14:18.213Z,14.25
2022-12-07T03:17:53.995Z,13.23
2022-12-07T03:19:44.020Z,13.02
2022-12-07T03:21:39.572Z,13.32
2022-12-07T03:23:27.884Z,13.88
2022-12-07T03:25:17.726Z,13.63
2022-12-07T03:27:15.932Z,13.77
2022-12-07T03:29:08.878Z,13.52
2022-12-07T03:31:13.453Z,12.73
2022-12-07T03:33:09.586Z,12.88
2022-12-07T03:35:08.087Z,11.90
2022-12-07T03:37:05.467Z,11.40
2022-12-07T03:39:10.439Z,11.73
2022-12-07T03:41:10.702Z,11.93
2022-12-07T03:43:00.887Z,12.00
2022-12-07T03:44:48.891Z,11.27
2022-12-07T03:46:45.153Z,12.75
2022-12-07T03:48:42.209Z,11.88
2022-12-07T03:50:56.796Z,10.10
2022-12-07T03:52:50.255Z,11.18
2022-12-07T03:55:01.485Z,10.60
2022-12-07T03:56:49.974Z,10.50
2022-12-07T03:58:38.135Z,10.32
2022-12-07T04:00:25.582Z,10.68
2022-12-07T04:02:14.726Z,10.52
2022-12-07T04:04:01.822Z,9.88
2022-12-07T04:05:49.350Z,10.75
2022-12-07T04:07:36.425Z,10.40
2022-12-07T04:09:23.797Z,10.18
2022-12-07T04:11:11.103Z,10.63
2022-12-07T04:12:58.153Z,9.73
2022-12-07T04:14:45.202Z,10.17
2022-12-07T04:16:32.714Z,9.88
2022-12-07T04:18:20.055Z,9.60
2022-12-07T04:20:08.395Z,10.52
2022-12-07T04:21:56.874Z,10.25
2022-12-07T04:23:43.945Z,10.55
2022-12-07T04:25:31.188Z,10.17
2022-12-07T04:27:18.541Z,9.50
2022-12-07T04:29:07.811Z,9.30
2022-12-07T04:30:55.908Z,9.77
2022-12-07T04:32:43.251Z,9.48
2022-12-07T04:34:30.403Z,9.17
2022-12-07T04:36:17.698Z,10.52
2022-12-07T04:38:05.246Z,9.95
2022-12-07T04:39:52.389Z,9.83
2022-12-07T04:41:39.476Z,9.65
2022-12-07T04:43:26.783Z,10.32
2022-12-07T04:45:13.916Z,10.13
2022-12-07T04:47:01.235Z,9.80
2022-12-07T04:48:49.516Z,9.98
2022-12-07T04:52:34.298Z,9.70
2022-12-07T04:54:24.725Z,9.77
2022-12-07T04:56:12.271Z,9.45
2022-12-07T04:57:59.351Z,10.07
2022-12-07T04:59:47.337Z,9.30
2022-12-07T05:01:35.029Z,9.65
2022-12-07T05:03:22.127Z,10.82
2022-12-07T05:05:09.488Z,9.55
2022-12-07T05:06:56.698Z,9.70
2022-12-07T05:08:44.136Z,9.97
2022-12-07T05:10:31.514Z,9.63
2022-12-07T05:12:18.482Z,9.93
2022-12-07T05:14:14.901Z,9.20
2022-12-07T05:16:02.445Z,9.30
2022-12-07T05:17:49.602Z,9.25
2022-12-07T05:19:36.683Z,10.00
2022-12-07T05:21:24.289Z,8.88
2022-12-07T05:23:11.887Z,11.55
2022-12-07T05:24:59.041Z,10.30
2022-12-07T05:26:46.663Z,10.55
2022-12-07T05:28:33.728Z,10.23
2022-12-07T05:30:20.859Z,8.27
2022-12-07T05:32:08.943Z,9.30
2022-12-07T05:35:43.277Z,9.02
2022-12-07T05:37:30.560Z,9.52
2022-12-07T05:39:17.691Z,9.87
2022-12-07T05:41:07.232Z,11.40
2022-12-07T05:42:55.094Z,10.55
2022-12-07T05:44:47.520Z,11.65
2022-12-07T05:46:34.768Z,11.65
2022-12-07T05:48:22.265Z,11.77
2022-12-07T05:50:09.491Z,11.63
2022-12-07T05:51:56.602Z,12.27
2022-12-07T05:53:43.982Z,15.50
2022-12-07T05:55:30.958Z,22.92
2022-12-07T05:57:18.062Z,19.60
2022-12-07T05:59:23.452Z,16.50
2022-12-07T06:01:10.486Z,12.15
2022-12-07T06:02:58.050Z,13.10
2022-12-07T06:06:33.778Z,14.60
2022-12-07T06:08:21.026Z,16.55
2022-12-07T06:10:09.552Z,17.55
2022-12-07T06:12:16.379Z,16.95
2022-12-07T06:14:04.235Z,17.90
2022-12-07T06:15:51.544Z,18.50
2022-12-07T06:17:38.782Z,19.40
2022-12-07T06:19:25.962Z,19.77
2022-12-07T06:21:13.257Z,17.40
2022-12-07T06:23:00.350Z,18.17
2022-12-07T06:24:47.463Z,18.67
2022-12-07T06:26:34.962Z,22.38
2022-12-07T06:28:22.079Z,22.80
2022-12-07T06:30:10.031Z,19.33
2022-12-07T06:31:57.613Z,20.65
2022-12-07T06:33:44.824Z,19.30
2022-12-07T06:35:34.357Z,17.47
2022-12-07T06:37:22.028Z,17.63
2022-12-07T06:39:10.207Z,18.40
2022-12-07T06:40:57.372Z,17.27
2022-12-07T06:42:44.839Z,18.27
2022-12-07T06:44:32.087Z,16.50
2022-12-07T06:46:19.790Z,16.83
2022-12-07T06:48:07.352Z,16.52
2022-12-07T06:49:54.606Z,17.60
2022-12-07T06:51:44.981Z,18.10
2022-12-07T06:53:32.392Z,16.45
2022-12-07T06:55:19.752Z,17.80
2022-12-07T06:57:06.952Z,17.65
2022-12-07T06:58:54.499Z,19.05
2022-12-07T07:00:41.791Z,18.85
2022-12-07T07:02:30.504Z,17.13
2022-12-07T07:04:18.086Z,17.23
2022-12-07T07:06:06.496Z,19.30
2022-12-07T07:08:21.414Z,17.38
2022-12-07T07:10:05.308Z,21.27
2022-12-07T07:11:52.938Z,20.23
2022-12-07T07:15:27.791Z,20.42
2022-12-07T07:17:14.991Z,18.95
2022-12-07T07:19:02.188Z,18.52
2022-12-07T07:20:50.894Z,19.70
2022-12-07T07:22:38.074Z,18.92
2022-12-07T07:24:25.121Z,18.05
2022-12-07T07:26:12.720Z,17.33
2022-12-07T07:28:00.499Z,13.48
2022-12-07T07:29:47.717Z,19.02
2022-12-07T07:31:38.257Z,19.92
2022-12-07T07:33:25.353Z,19.35
2022-12-07T07:35:12.639Z,20.30
2022-12-07T07:37:00.079Z,21.33
2022-12-07T07:38:47.346Z,20.52
2022-12-07T07:40:34.667Z,19.60
2022-12-07T07:42:22.157Z,22.15
2022-12-07T07:44:10.314Z,24.77
2022-12-07T07:45:57.466Z,23.92
2022-12-07T07:47:44.906Z,26.70
2022-12-07T07:49:32.153Z,24.40
2022-12-07T07:51:19.265Z,19.98
2022-12-07T07:53:06.683Z,20.20
2022-12-07T07:54:53.976Z,20.40
2022-12-07T07:56:41.154Z,20.25
2022-12-07T07:58:28.663Z,21.92
2022-12-07T08:00:16.837Z,20.17
2022-12-07T08:02:03.981Z,21.83
2022-12-07T08:03:51.439Z,22.20
2022-12-07T08:05:39.275Z,19.83
2022-12-07T08:07:26.638Z,19.55
2022-12-07T08:09:14.241Z,19.65
2022-12-07T08:11:02.613Z,18.40
2022-12-07T08:13:08.482Z,19.08
2022-12-07T08:14:55.918Z,19.50
2022-12-07T08:16:42.978Z,16.77
2022-12-07T08:18:30.142Z,19.42
2022-12-07T08:20:17.573Z,20.05
2022-12-07T08:22:04.918Z,20.67
2022-12-07T08:23:52.042Z,21.75
2022-12-07T08:25:40.080Z,19.90
2022-12-07T08:27:28.341Z,24.10
2022-12-07T08:29:15.505Z,22.77
2022-12-07T08:31:06.137Z,17.05
2022-12-07T08:32:53.709Z,18.40
2022-12-07T08:34:40.911Z,17.10
2022-12-07T08:36:28.496Z,16.58
2022-12-07T08:38:15.637Z,14.60
2022-12-07T08:40:03.537Z,16.30
2022-12-07T08:41:51.104Z,17.63
2022-12-07T08:43:38.597Z,18.88
2022-12-07T08:45:27.677Z,19.90
2022-12-07T08:47:15.660Z,16.15
2022-12-07T08:49:17.530Z,19.08
2022-12-07T08:51:04.974Z,19.90
2022-12-07T08:52:56.028Z,25.30
2022-12-07T08:54:43.302Z,21.15
2022-12-07T08:56:30.648Z,18.50
2022-12-07T08:58:18.237Z,21.73
2022-12-07T09:00:06.348Z,14.20
2022-12-07T09:01:53.878Z,15.75
2022-12-07T09:03:41.392Z,17.05
2022-12-07T09:05:29.125Z,17.00
2022-12-07T09:07:16.463Z,17.40
2022-12-07T09:09:04.937Z,18.38
2022-12-07T09:10:52.133Z,20.13
2022-12-07T09:12:39.261Z,19.20
2022-12-07T09:14:26.655Z,19.20
2022-12-07T09:16:13.954Z,19.50
2022-12-07T09:18:01.192Z,21.27
2022-12-07T09:19:48.700Z,20.10
2022-12-07T09:21:35.754Z,19.42
2022-12-07T09:23:23.165Z,18.93
2022-12-07T09:25:10.955Z,20.02
2022-12-07T09:26:58.678Z,19.48
2022-12-07T09:28:45.990Z,17.70
2022-12-07T09:30:42.779Z,15.63
2022-12-07T09:32:40.709Z,14.32
2022-12-07T09:34:28.085Z,13.48
2022-12-07T09:36:15.581Z,13.55
2022-12-07T09:38:02.664Z,15.75
2022-12-07T09:39:50.649Z,14.63
2022-12-07T09:41:43.783Z,14.38
2022-12-07T09:43:30.989Z,14.05
2022-12-07T09:45:25.569Z,14.48
2022-12-07T09:47:13.109Z,14.15
2022-12-07T09:49:00.630Z,13.63
2022-12-07T09:50:49.820Z,12.48
2022-12-07T09:52:39.224Z,12.75
2022-12-07T09:54:26.666Z,13.20
2022-12-07T09:56:15.909Z,16.23
2022-12-07T09:58:03.534Z,12.52
2022-12-07T09:59:50.735Z,12.90
2022-12-07T10:01:40.809Z,18.10
2022-12-07T10:03:29.508Z,22.15
2022-12-07T10:05:42.099Z,15.18
2022-12-07T10:07:29.177Z,13.88
2022-12-07T10:09:18.918Z,12.40
2022-12-07T10:11:11.494Z,14.43
2022-12-07T10:13:07.695Z,15.48
2022-12-07T10:15:09.158Z,12.98
2022-12-07T10:16:56.819Z,12.00
2022-12-07T10:18:44.931Z,13.40
2022-12-07T10:20:32.341Z,16.50
2022-12-07T10:22:19.455Z,18.08
2022-12-07T10:24:16.051Z,15.60
2022-12-07T10:26:29.358Z,14.57
2022-12-07T10:28:19.369Z,15.80
2022-12-07T10:30:15.480Z,15.43
2022-12-07T10:32:06.039Z,16.80
2022-12-07T10:33:56.522Z,17.40
2022-12-07T10:35:46.456Z,17.67
2022-12-07T10:37:42.215Z,16.65
2022-12-07T10:39:29.424Z,17.10
2022-12-07T10:41:17.409Z,14.80
2022-12-07T10:43:12.959Z,15.38
2022-12-07T10:45:17.937Z,17.60
2022-12-07T10:47:40.237Z,13.90
2022-12-07T10:49:40.778Z,16.48
2022-12-07T10:51:47.128Z,15.95
2022-12-07T10:53:57.232Z,15.00
2022-12-07T10:56:09.099Z,14.88
2022-12-07T10:58:20.141Z,15.65
2022-12-07T11:00:20.585Z,17.60
2022-12-07T11:02:22.829Z,14.38
2022-12-07T11:04:52.191Z,11.68
2022-12-07T11:06:52.849Z,11.88
2022-12-07T11:08:52.681Z,13.07
2022-12-07T11:10:56.290Z,11.98
2022-12-07T11:12:52.787Z,12.40
2022-12-07T11:15:12.443Z,16.40
2022-12-07T11:17:32.314Z,11.15
2022-12-07T11:19:31.303Z,10.82
2022-12-07T11:21:30.275Z,10.15
2022-12-07T11:23:39.480Z,10.85
2022-12-07T11:25:41.099Z,12.27
2022-12-07T11:27:45.677Z,11.43
2022-12-07T11:29:49.032Z,12.25
2022-12-07T11:31:36.662Z,13.70
2022-12-07T11:33:42.777Z,10.18
2022-12-07T11:35:53.813Z,13.15
2022-12-07T11:37:44.005Z,13.07
2022-12-07T11:39:40.253Z,10.73
2022-12-07T11:41:34.068Z,10.82
2022-12-07T11:43:28.757Z,13.95
2022-12-07T11:45:20.729Z,12.32
2022-12-07T11:47:18.060Z,10.70
2022-12-07T11:49:28.944Z,10.35
2022-12-07T11:51:19.436Z,11.93
2022-12-07T11:53:09.214Z,14.55
2022-12-07T11:54:59.474Z,13.88
2022-12-07T11:56:52.527Z,12.13
2022-12-07T11:58:49.771Z,13.07
2022-12-07T12:00:40.244Z,11.88
2022-12-07T12:02:50.400Z,12.85
2022-12-07T12:04:52.845Z,15.73
2022-12-07T12:06:42.775Z,13.10
2022-12-07T12:11:21.828Z,20.70
2022-12-07T12:16:00.750Z,47.10
2022-12-07T12:18:15.745Z,16.40
2022-12-07T12:20:35.379Z,32.50
2022-12-07T12:22:29.275Z,19.60
2022-12-07T12:24:23.157Z,14.23
2022-12-07T12:26:21.112Z,12.32
2022-12-07T12:28:49.919Z,11.55
2022-12-07T12:30:40.883Z,13.35
2022-12-07T12:32:40.430Z,14.63
2022-12-07T12:34:34.420Z,21.42
2022-12-07T12:36:34.280Z,15.18
2022-12-07T12:38:54.778Z,16.35
2022-12-07T12:40:50.064Z,30.23
2022-12-07T12:42:48.591Z,24.52
2022-12-07T12:44:38.549Z,22.30
2022-12-07T12:46:34.945Z,24.27
2022-12-07T12:48:37.957Z,17.27
2022-12-07T12:50:31.701Z,27.02
2022-12-07T12:52:30.941Z,20.10
2022-12-07T12:54:25.017Z,19.30
2022-12-07T12:56:36.883Z,25.70
2022-12-07T12:58:32.857Z,28.75
2022-12-07T13:00:25.037Z,23.60
2022-12-07T13:02:31.264Z,22.92
2022-12-07T13:06:25.861Z,36.72
2022-12-07T13:08:27.085Z,31.13
2022-12-07T13:10:30.361Z,21.35
2022-12-07T13:12:20.404Z,23.70
2022-12-07T13:14:42.168Z,22.55
2022-12-07T13:16:40.909Z,27.40
2022-12-07T13:18:31.716Z,32.17
2022-12-07T13:20:41.775Z,29.48
2022-12-07T13:22:32.141Z,27.73
2022-12-07T13:24:19.961Z,34.13
2022-12-07T13:26:17.882Z,31.25
2022-12-07T13:28:12.515Z,32.95
2022-12-07T13:30:00.007Z,30.02
2022-12-07T13:33:39.820Z,40.75
2022-12-07T13:35:38.701Z,33.78
2022-12-07T13:37:36.657Z,34.88
2022-12-07T13:39:27.758Z,31.23
2022-12-07T13:41:17.854Z,31.63
2022-12-07T13:43:13.927Z,34.03
2022-12-07T13:45:20.596Z,32.22
2022-12-07T13:47:16.713Z,17.77
2022-12-07T13:49:14.895Z,21.50
2022-12-07T13:51:05.047Z,56.65
2022-12-07T13:52:56.965Z,25.38
2022-12-07T13:55:10.154Z,38.45
2022-12-07T13:56:57.661Z,22.13
2022-12-07T13:58:45.711Z,25.38
2022-12-07T14:00:33.036Z,25.30
2022-12-07T14:02:33.828Z,24.65
2022-12-07T14:04:32.167Z,24.88
2022-12-07T14:06:29.569Z,25.02
2022-12-07T14:08:17.863Z,24.63
2022-12-07T14:10:07.136Z,21.77
2022-12-07T14:11:57.047Z,22.67
2022-12-07T14:14:00.384Z,22.85
2022-12-07T14:15:51.954Z,22.27
2022-12-07T14:17:53.080Z,20.63
2022-12-07T14:19:48.643Z,19.30
2022-12-07T14:21:36.728Z,20.15
2022-12-07T14:23:26.816Z,21.42
2022-12-07T14:25:14.201Z,19.50
2022-12-07T14:27:01.578Z,18.92
2022-12-07T14:28:49.020Z,20.88
2022-12-07T14:30:36.375Z,18.70
2022-12-07T14:32:30.806Z,21.25
2022-12-07T14:34:18.204Z,20.13
2022-12-07T14:36:05.738Z,21.45
2022-12-07T14:37:53.537Z,18.80
2022-12-07T14:39:42.671Z,19.45
2022-12-07T14:41:48.971Z,18.48
2022-12-07T14:43:39.395Z,17.48
2022-12-07T14:45:32.819Z,22.70
2022-12-07T14:55:29.211Z,23.23
2022-12-07T14:57:17.374Z,27.85
2022-12-07T14:59:06.032Z,32.40
2022-12-07T15:00:53.074Z,23.63
2022-12-07T15:02:40.520Z,26.30
2022-12-07T15:04:30.713Z,21.45
2022-12-07T15:06:19.230Z,21.00
2022-12-07T15:08:07.766Z,25.73
2022-12-07T15:09:58.084Z,21.63
2022-12-07T15:11:45.135Z,21.30
2022-12-07T15:13:51.087Z,20.38
2022-12-07T15:15:38.573Z,17.80
2022-12-07T15:17:31.626Z,19.17
2022-12-07T15:19:28.281Z,20.40
2022-12-07T15:21:17.354Z,21.95
2022-12-07T15:24:53.629Z,19.25
2022-12-07T15:26:42.353Z,18.77
2022-12-07T15:28:29.576Z,18.67
2022-12-07T15:30:16.906Z,15.98
2022-12-07T15:32:04.349Z,20.25
2022-12-07T15:33:51.445Z,18.63
2022-12-07T15:35:45.159Z,18.38
2022-12-07T15:37:32.607Z,19.95
2022-12-07T15:39:19.859Z,19.80
2022-12-07T15:41:07.025Z,16.05
2022-12-07T15:42:54.442Z,14.40
2022-12-07T15:45:00.414Z,15.47
2022-12-07T15:46:47.932Z,17.67
2022-12-07T15:48:35.521Z,17.10
2022-12-07T15:50:23.131Z,15.13
2022-12-07T15:52:10.453Z,16.90
2022-12-07T15:53:59.879Z,21.23
2022-12-07T15:55:47.994Z,16.73
2022-12-07T15:57:38.054Z,17.23
2022-12-07T15:59:27.811Z,19.48
2022-12-07T16:01:19.713Z,19.77
2022-12-07T16:03:07.048Z,16.48
2022-12-07T16:06:42.807Z,14.38
2022-12-07T16:10:23.904Z,16.48
2022-12-07T16:12:11.857Z,15.63
2022-12-07T16:15:46.795Z,21.98
2022-12-07T16:17:34.162Z,22.17
2022-12-07T16:19:21.530Z,23.45
2022-12-07T16:21:09.922Z,24.67
2022-12-07T16:22:57.542Z,19.05
2022-12-07T16:24:44.811Z,19.60
2022-12-07T16:26:33.239Z,19.35
2022-12-07T16:28:20.614Z,18.75
2022-12-07T16:30:08.418Z,17.98
2022-12-07T16:31:55.854Z,16.98
2022-12-07T16:33:45.102Z,43.47
2022-12-07T16:35:32.250Z,63.72
2022-12-07T16:37:19.726Z,33.03
2022-12-07T16:39:07.591Z,26.23
2022-12-07T16:42:43.249Z,148.98
2022-12-07T16:44:31.796Z,95.43
2022-12-07T16:46:19.068Z,65.90
2022-12-07T16:48:06.896Z,62.67
2022-12-07T16:49:54.020Z,82.35
2022-12-07T16:51:45.860Z,70.95
2022-12-07T16:53:33.807Z,35.35
2022-12-07T16:55:20.912Z,31.65
2022-12-07T16:57:07.936Z,36.27
2022-12-07T16:58:55.792Z,15.50
2022-12-07T17:00:44.379Z,14.77
2022-12-07T17:02:31.598Z,13.23
2022-12-07T17:04:19.055Z,13.40
2022-12-07T17:06:20.382Z,12.48
2022-12-07T17:08:08.359Z,13.27
2022-12-07T17:09:55.777Z,19.20
2022-12-07T17:11:45.435Z,15.87
2022-12-07T17:13:51.569Z,14.45
2022-12-07T17:15:38.864Z,19.77
2022-12-07T17:17:25.967Z,16.63
2022-12-07T17:19:16.194Z,26.97
2022-12-07T17:21:09.744Z,36.88
2022-12-07T17:22:59.096Z,20.88
2022-12-07T17:24:46.295Z,24.35
2022-12-07T17:26:35.939Z,24.80
2022-12-07T17:28:23.423Z,25.30
2022-12-07T17:30:12.130Z,11.05
2022-12-07T17:31:59.640Z,20.15
2022-12-07T17:33:47.356Z,13.70
2022-12-07T17:35:34.710Z,18.23
2022-12-07T17:37:22.076Z,16.10
2022-12-07T17:39:15.376Z,18.83
2022-12-07T17:41:10.228Z,20.00
2022-12-07T17:42:57.648Z,18.27
2022-12-07T17:44:44.710Z,15.93
2022-12-07T17:46:33.295Z,10.27
2022-12-07T17:48:21.296Z,19.77
2022-12-07T17:50:09.027Z,13.63
2022-12-07T17:52:14.748Z,14.93
2022-12-07T17:54:02.279Z,15.98
2022-12-07T17:56:26.860Z,14.55
2022-12-07T17:58:00.869Z,9.77
2022-12-07T17:59:48.256Z,9.63
2022-12-07T18:01:36.179Z,11.48
2022-12-07T18:05:11.381Z,7.10
2022-12-07T18:06:58.676Z,12.73
2022-12-07T18:08:45.935Z,10.35
2022-12-07T18:10:33.291Z,6.93
2022-12-07T18:12:20.644Z,8.82
2022-12-07T18:14:08.837Z,11.03
2022-12-07T18:15:58.044Z,84.93
2022-12-07T18:17:45.280Z,12.82
2022-12-07T18:19:37.207Z,23.48
2022-12-07T18:21:27.086Z,11.95
2022-12-07T18:23:14.604Z,14.80
2022-12-07T18:25:02.191Z,16.55
2022-12-07T18:26:51.371Z,17.20
2022-12-07T18:28:38.660Z,16.60
2022-12-07T18:30:49.529Z,16.77
2022-12-07T18:32:33.486Z,15.00
2022-12-07T18:34:20.767Z,17.08
2022-12-07T18:36:09.136Z,13.90
2022-12-07T18:37:56.617Z,15.80
2022-12-07T18:39:43.726Z,14.63
2022-12-07T18:41:30.966Z,15.93
2022-12-07T18:43:19.128Z,15.52
2022-12-07T18:45:07.180Z,15.70
2022-12-07T18:48:42.387Z,12.18
2022-12-07T18:50:30.859Z,12.32
2022-12-07T18:52:18.375Z,13.23
2022-12-07T18:54:06.605Z,10.57
2022-12-07T18:56:13.731Z,12.02
2022-12-07T18:58:00.962Z,11.60
2022-12-07T18:59:49.868Z,13.93
2022-12-07T19:01:37.616Z,10.98
2022-12-07T19:03:31.353Z,12.27
2022-12-07T19:05:21.874Z,10.00
2022-12-07T19:08:57.219Z,8.85
2022-12-07T19:10:44.820Z,11.80
2022-12-07T19:12:32.432Z,8.30
2022-12-07T19:14:27.201Z,8.43
2022-12-07T19:16:14.719Z,8.40
2022-12-07T19:18:02.056Z,8.40
2022-12-07T19:19:49.352Z,10.85
2022-12-07T19:23:25.576Z,10.15
2022-12-07T19:25:13.948Z,11.55
2022-12-07T19:28:49.328Z,15.95
2022-12-07T19:30:38.080Z,16.77
2022-12-07T19:32:25.773Z,14.75
2022-12-07T19:34:18.725Z,20.25
2022-12-07T19:36:06.795Z,22.00
2022-12-07T19:37:54.738Z,16.90
2022-12-07T19:41:38.186Z,19.55
2022-12-07T19:43:25.658Z,21.27
2022-12-07T19:45:12.867Z,21.43
2022-12-07T19:47:04.985Z,29.55
2022-12-07T19:48:53.729Z,34.20
2022-12-07T19:50:41.221Z,24.42
2022-12-07T19:52:33.521Z,13.63
2022-12-07T19:54:26.947Z,10.48
2022-12-07T19:56:18.446Z,13.73
2022-12-07T19:58:05.938Z,11.50
2022-12-07T19:59:53.501Z,11.43
2022-12-07T20:01:43.721Z,10.45
2022-12-07T20:03:31.871Z,12.63
2022-12-07T20:05:19.606Z,23.58
2022-12-07T20:07:06.698Z,27.67
2022-12-07T20:08:54.347Z,23.75
2022-12-07T20:10:41.946Z,33.22
2022-12-07T20:12:47.927Z,24.23
2022-12-07T20:14:37.009Z,26.38
2022-12-07T20:16:24.726Z,21.45
2022-12-07T20:18:12.009Z,22.70
2022-12-07T20:19:59.320Z,25.83
2022-12-07T20:21:47.099Z,26.60
2022-12-07T20:23:34.193Z,26.70
2022-12-07T20:25:21.815Z,34.33
2022-12-07T20:28:56.854Z,17.25
2022-12-07T20:30:52.547Z,17.42
2022-12-07T20:32:40.140Z,17.10
2022-12-07T20:34:27.455Z,14.75
2022-12-07T20:36:17.046Z,19.63
2022-12-07T20:38:04.782Z,23.05
2022-12-07T20:39:51.855Z,19.80
2022-12-07T20:41:58.394Z,20.08
2022-12-07T20:43:45.945Z,19.55
2022-12-07T20:45:37.765Z,18.58
2022-12-07T20:47:25.435Z,14.57
2022-12-07T20:51:07.302Z,15.13
2022-12-07T20:53:00.334Z,19.63
2022-12-07T20:54:47.991Z,17.38
2022-12-07T20:56:36.324Z,16.52
2022-12-07T20:58:28.268Z,16.45
2022-12-07T21:00:16.609Z,16.95
2022-12-07T21:02:03.802Z,20.90
2022-12-07T21:03:55.187Z,20.42
2022-12-07T21:05:47.449Z,18.00
2022-12-07T21:07:38.352Z,17.38
2022-12-07T21:09:27.165Z,22.35
2022-12-07T21:11:15.581Z,16.30
2022-12-07T21:13:02.749Z,17.55
2022-12-07T21:14:51.059Z,17.55
2022-12-07T21:18:25.957Z,19.38
2022-12-07T21:22:02.117Z,17.85
2022-12-07T21:23:54.501Z,17.73
2022-12-07T21:25:46.116Z,28.17
2022-12-07T21:27:34.377Z,20.00
2022-12-07T21:29:34.638Z,20.98
2022-12-07T21:31:28.881Z,26.30
2022-12-07T21:33:16.220Z,26.63
2022-12-07T21:35:04.149Z,21.90
2022-12-07T21:36:51.818Z,18.70
2022-12-07T21:38:39.507Z,20.40
2022-12-07T21:40:26.899Z,21.30
2022-12-07T21:42:14.535Z,18.23
2022-12-07T21:44:05.554Z,21.13
2022-12-07T21:45:54.316Z,19.17
2022-12-07T21:47:41.886Z,19.58
2022-12-07T21:49:29.119Z,22.35
2022-12-07T21:51:16.803Z,25.05
2022-12-07T21:53:04.537Z,29.02
2022-12-07T21:54:51.852Z,22.50
2022-12-07T21:56:41.558Z,21.45
2022-12-07T21:58:29.821Z,16.83
2022-12-07T22:00:20.463Z,14.60
2022-12-07T22:02:14.540Z,22.05
2022-12-07T22:04:02.532Z,16.33
2022-12-07T22:05:49.752Z,20.95
2022-12-07T22:07:36.842Z,14.13
2022-12-07T22:09:24.753Z,16.65
2022-12-07T22:11:12.895Z,10.60
2022-12-07T22:13:00.677Z,16.10
2022-12-07T22:15:07.084Z,15.57
2022-12-07T22:16:54.922Z,13.63
2022-12-07T22:18:42.404Z,19.35
2022-12-07T22:22:16.769Z,15.52
2022-12-07T22:24:05.369Z,14.90
2022-12-07T22:25:53.729Z,15.95
2022-12-07T22:27:42.036Z,13.45
2022-12-07T22:29:29.218Z,14.50
2022-12-07T22:31:18.800Z,14.65
2022-12-07T22:33:05.872Z,14.73
2022-12-07T22:34:52.983Z,13.05
2022-12-07T22:36:40.322Z,14.52
2022-12-07T22:38:28.080Z,11.70
2022-12-07T22:40:16.112Z,11.98
2022-12-07T22:42:03.586Z,10.88
2022-12-07T22:43:50.668Z,11.50
2022-12-07T22:45:39.635Z,10.82
2022-12-07T22:47:26.922Z,9.40
2022-12-07T22:49:14.003Z,8.87
2022-12-07T22:51:01.177Z,9.40
2022-12-07T22:52:48.549Z,10.07
2022-12-07T22:54:35.637Z,10.52
2022-12-07T22:56:23.299Z,11.80
2022-12-07T23:00:13.911Z,10.48
2022-12-07T23:02:00.920Z,10.48
2022-12-07T23:03:48.554Z,11.63
2022-12-07T23:05:44.911Z,11.40
2022-12-07T23:07:31.974Z,10.60
2022-12-07T23:09:19.440Z,10.60
2022-12-07T23:11:10.356Z,11.48
2022-12-07T23:13:15.988Z,11.77
2022-12-07T23:15:05.423Z,11.00
2022-12-07T23:16:52.737Z,11.32
2022-12-07T23:18:41.756Z,10.87
2022-12-07T23:20:29.293Z,11.15
2022-12-07T23:22:16.519Z,12.05
2022-12-07T23:24:04.210Z,10.95
2022-12-07T23:25:52.014Z,12.02
2022-12-07T23:27:39.027Z,11.18
2022-12-07T23:29:26.834Z,11.35
2022-12-07T23:31:16.586Z,11.68
2022-12-07T23:33:03.717Z,11.50
2022-12-07T23:34:50.784Z,11.10
2022-12-07T23:36:38.171Z,10.30
2022-12-07T23:38:25.186Z,10.43
2022-12-07T23:40:12.396Z,12.75
2022-12-07T23:41:59.802Z,12.98
2022-12-07T23:43:47.482Z,12.45
2022-12-07T23:45:34.412Z,11.50
2022-12-07T23:47:21.719Z,11.55
2022-12-07T23:49:09.099Z,11.37
2022-12-07T23:50:58.444Z,13.32
2022-12-07T23:52:45.868Z,12.35
2022-12-07T23:54:32.929Z,12.02
2022-12-07T23:56:23.384Z,13.03
2022-12-07T23:58:10.838Z,13.20
2022-12-07T23:59:57.821Z,12.90
